createdAt,value
2022-12-20T00:01:15.654Z,47.85
2022-12-20T00:03:42.553Z,52.95
2022-12-20T00:06:09.101Z,48.63
2022-12-20T00:08:36.624Z,44.17
2022-12-20T00:11:05.011Z,48.20
2022-12-20T00:13:32.400Z,47.88
2022-12-20T00:16:14.200Z,47.63
2022-12-20T00:18:42.080Z,49.38
2022-12-20T00:21:11.932Z,49.92
2022-12-20T00:23:39.234Z,46.27
2022-12-20T00:26:12.580Z,50.88
2022-12-20T00:28:43.196Z,51.05
2022-12-20T00:31:12.087Z,46.55
2022-12-20T00:33:39.839Z,48.60
2022-12-20T00:36:07.442Z,46.30
2022-12-20T00:38:35.131Z,47.17
2022-12-20T00:41:14.109Z,49.22
2022-12-20T00:43:41.437Z,47.63
2022-12-20T00:46:10.183Z,50.28
2022-12-20T00:48:36.725Z,47.63
2022-12-20T00:51:05.832Z,47.58
2022-12-20T00:53:32.984Z,54.50
2022-12-20T00:56:00.107Z,55.70
2022-12-20T00:58:27.730Z,60.03
2022-12-20T01:00:56.789Z,49.07
2022-12-20T01:03:24.682Z,51.85
2022-12-20T01:05:57.796Z,45.83
2022-12-20T01:08:26.268Z,46.85
2022-12-20T01:11:03.370Z,47.72
2022-12-20T01:13:31.324Z,48.00
2022-12-20T01:16:04.820Z,48.30
2022-12-20T01:18:31.400Z,49.17
2022-12-20T01:21:06.458Z,50.83
2022-12-20T01:23:33.084Z,49.33
2022-12-20T01:26:00.623Z,45.57
2022-12-20T01:28:28.805Z,49.05
2022-12-20T01:30:55.699Z,48.35
2022-12-20T01:33:22.704Z,45.53
2022-12-20T01:36:00.790Z,53.40
2022-12-20T01:38:28.427Z,55.33
2022-12-20T01:40:57.474Z,50.13
2022-12-20T01:43:25.370Z,47.83
2022-12-20T01:45:52.815Z,53.13
2022-12-20T01:48:25.839Z,50.28
2022-12-20T01:50:53.351Z,47.83
2022-12-20T01:53:23.438Z,47.70
2022-12-20T01:55:50.104Z,46.35
2022-12-20T01:58:19.901Z,49.05
2022-12-20T02:00:46.911Z,49.95
2022-12-20T02:03:15.373Z,48.40
2022-12-20T02:05:47.635Z,48.67
2022-12-20T02:08:18.755Z,50.53
2022-12-20T02:11:14.243Z,48.15
2022-12-20T02:14:07.148Z,51.25
2022-12-20T02:16:57.519Z,47.13
2022-12-20T02:19:42.345Z,48.20
2022-12-20T02:22:26.953Z,50.10
2022-12-20T02:25:31.077Z,49.60
2022-12-20T02:28:05.003Z,45.88
2022-12-20T02:30:40.989Z,45.87
2022-12-20T02:33:11.623Z,49.65
2022-12-20T02:35:39.692Z,48.40
2022-12-20T02:38:36.908Z,51.00
2022-12-20T02:41:03.211Z,49.38
2022-12-20T02:43:50.946Z,50.33
2022-12-20T02:46:20.192Z,49.22
2022-12-20T02:48:49.500Z,51.35
2022-12-20T02:51:18.730Z,47.47
2022-12-20T02:53:46.093Z,50.08
2022-12-20T02:56:20.009Z,48.50
2022-12-20T02:58:52.584Z,48.33
2022-12-20T03:01:25.502Z,47.10
2022-12-20T03:03:54.505Z,50.03
2022-12-20T03:06:21.748Z,51.40
2022-12-20T03:08:48.323Z,50.43
2022-12-20T03:11:14.816Z,46.38
2022-12-20T03:13:42.494Z,51.80
2022-12-20T03:16:10.871Z,51.05
2022-12-20T03:18:37.533Z,45.83
2022-12-20T03:21:04.760Z,49.57
2022-12-20T03:23:31.571Z,49.20
2022-12-20T03:26:00.917Z,48.35
2022-12-20T03:28:27.507Z,46.63
2022-12-20T03:30:54.086Z,44.42
2022-12-20T03:33:20.733Z,51.47
2022-12-20T03:35:48.611Z,45.58
2022-12-20T03:38:15.172Z,45.92
2022-12-20T03:40:41.664Z,46.83
2022-12-20T03:43:07.992Z,47.00
2022-12-20T03:45:34.501Z,51.33
2022-12-20T03:48:01.042Z,47.65
2022-12-20T03:50:27.424Z,45.60
2022-12-20T03:52:53.761Z,51.25
2022-12-20T03:55:20.091Z,47.38
2022-12-20T03:57:46.574Z,50.53
2022-12-20T04:00:13.698Z,47.60
2022-12-20T04:02:40.526Z,48.08
2022-12-20T04:05:07.604Z,46.60
2022-12-20T04:07:34.099Z,48.25
2022-12-20T04:10:00.992Z,48.70
2022-12-20T04:12:27.542Z,45.30
2022-12-20T04:14:53.908Z,49.67
2022-12-20T04:17:20.457Z,46.00
2022-12-20T04:19:47.019Z,47.72
2022-12-20T04:22:13.417Z,46.07
2022-12-20T04:24:39.993Z,46.05
2022-12-20T04:27:06.593Z,48.30
2022-12-20T04:29:33.149Z,52.17
2022-12-20T04:31:59.633Z,46.33
2022-12-20T04:34:26.172Z,52.87
2022-12-20T04:36:52.564Z,52.30
2022-12-20T04:39:19.017Z,49.25
2022-12-20T04:41:45.452Z,50.90
2022-12-20T04:44:12.020Z,53.25
2022-12-20T04:46:38.604Z,50.63
2022-12-20T04:49:05.059Z,54.50
2022-12-20T04:51:31.471Z,51.42
2022-12-20T04:53:58.027Z,44.58
2022-12-20T04:56:30.653Z,47.78
2022-12-20T04:58:58.919Z,45.33
2022-12-20T05:01:25.947Z,50.63
2022-12-20T05:03:53.132Z,46.00
2022-12-20T05:06:19.608Z,47.28
2022-12-20T05:08:46.208Z,47.22
2022-12-20T05:11:12.803Z,51.63
2022-12-20T05:13:39.511Z,45.80
2022-12-20T05:16:06.609Z,48.45
2022-12-20T05:18:33.111Z,51.17
2022-12-20T05:21:19.924Z,51.88
2022-12-20T05:24:06.309Z,47.93
2022-12-20T05:26:36.630Z,50.10
2022-12-20T05:29:03.937Z,45.33
2022-12-20T05:31:30.691Z,47.67
2022-12-20T05:33:57.432Z,45.13
2022-12-20T05:36:24.074Z,49.00
2022-12-20T05:38:50.693Z,49.10
2022-12-20T05:41:17.252Z,48.92
2022-12-20T05:43:43.804Z,45.33
2022-12-20T05:46:10.885Z,45.75
2022-12-20T05:48:37.746Z,52.33
2022-12-20T05:51:04.508Z,44.00
2022-12-20T05:53:31.409Z,50.03
2022-12-20T05:55:59.936Z,51.60
2022-12-20T05:58:26.553Z,53.50
2022-12-20T06:00:53.060Z,48.43
2022-12-20T06:03:19.772Z,45.08
2022-12-20T06:05:46.717Z,49.05
2022-12-20T06:08:13.983Z,47.58
2022-12-20T06:10:41.931Z,52.13
2022-12-20T06:13:12.237Z,50.60
2022-12-20T06:15:38.725Z,43.75
2022-12-20T06:18:06.268Z,47.25
2022-12-20T06:20:36.672Z,49.80
2022-12-20T06:23:03.492Z,52.22
2022-12-20T06:25:30.706Z,53.13
2022-12-20T06:27:57.863Z,50.22
2022-12-20T06:30:30.275Z,49.97
2022-12-20T06:33:00.125Z,46.55
2022-12-20T06:35:26.744Z,48.92
2022-12-20T06:37:53.339Z,48.87
2022-12-20T06:40:19.972Z,51.13
2022-12-20T06:42:46.411Z,49.42
2022-12-20T06:45:13.002Z,47.90
2022-12-20T06:47:39.578Z,49.30
2022-12-20T06:50:06.862Z,46.23
2022-12-20T06:52:33.511Z,49.00
2022-12-20T06:55:00.092Z,49.70
2022-12-20T06:57:26.688Z,45.13
2022-12-20T06:59:53.274Z,48.90
2022-12-20T07:02:19.853Z,45.10
2022-12-20T07:04:46.528Z,48.47
2022-12-20T07:07:13.478Z,46.40
2022-12-20T07:09:41.451Z,45.17
2022-12-20T07:12:09.134Z,49.45
2022-12-20T07:14:35.821Z,49.50
2022-12-20T07:17:05.199Z,44.80
2022-12-20T07:19:31.969Z,46.58
2022-12-20T07:21:59.131Z,50.10
2022-12-20T07:24:25.685Z,45.30
2022-12-20T07:26:52.828Z,50.50
2022-12-20T07:29:19.409Z,46.55
2022-12-20T07:31:45.964Z,49.53
2022-12-20T07:34:12.606Z,47.85
2022-12-20T07:36:39.125Z,44.65
2022-12-20T07:39:05.795Z,48.33
2022-12-20T07:41:32.380Z,48.00
2022-12-20T07:43:59.328Z,43.75
2022-12-20T07:46:26.090Z,46.08
2022-12-20T07:48:52.599Z,46.75
2022-12-20T07:51:42.183Z,47.53
2022-12-20T07:54:16.981Z,45.05
2022-12-20T07:56:47.403Z,46.20
2022-12-20T07:59:19.138Z,45.78
2022-12-20T08:01:46.750Z,52.58
2022-12-20T08:04:18.886Z,47.93
2022-12-20T08:06:46.560Z,47.92
2022-12-20T08:09:14.481Z,47.45
2022-12-20T08:11:44.733Z,50.70
2022-12-20T08:14:11.683Z,46.58
2022-12-20T08:16:38.898Z,46.83
2022-12-20T08:19:05.588Z,46.95
2022-12-20T08:21:32.114Z,47.88
2022-12-20T08:23:58.455Z,44.72
2022-12-20T08:26:25.062Z,44.97
2022-12-20T08:28:51.574Z,44.23
2022-12-20T08:31:17.964Z,41.53
2022-12-20T08:33:44.422Z,45.78
2022-12-20T08:36:13.474Z,46.33
2022-12-20T08:38:41.660Z,47.22
2022-12-20T08:41:11.950Z,44.77
2022-12-20T08:43:39.806Z,44.50
2022-12-20T08:46:08.415Z,44.92
2022-12-20T08:48:35.753Z,44.53
2022-12-20T08:51:05.530Z,45.28
2022-12-20T08:53:33.706Z,45.37
2022-12-20T08:56:18.709Z,45.88
2022-12-20T08:58:46.086Z,44.42
2022-12-20T09:01:17.963Z,43.00
2022-12-20T09:03:45.834Z,43.25
2022-12-20T09:06:15.907Z,45.13
2022-12-20T09:08:42.464Z,43.95
2022-12-20T09:11:15.545Z,46.55
2022-12-20T09:13:44.788Z,44.33
2022-12-20T09:16:16.790Z,42.53
2022-12-20T09:18:43.664Z,41.20
2022-12-20T09:21:11.392Z,44.67
2022-12-20T09:23:38.539Z,58.45
2022-12-20T09:26:07.283Z,40.55
2022-12-20T09:28:34.624Z,43.47
2022-12-20T09:31:03.094Z,42.83
2022-12-20T09:33:30.892Z,43.08
2022-12-20T09:35:58.012Z,44.05
2022-12-20T09:38:25.324Z,42.80
2022-12-20T09:40:55.423Z,46.67
2022-12-20T09:43:22.383Z,46.13
2022-12-20T09:45:52.742Z,44.92
2022-12-20T09:48:23.941Z,48.63
2022-12-20T09:51:17.915Z,44.72
2022-12-20T09:53:50.524Z,43.78
2022-12-20T09:56:27.059Z,40.27
2022-12-20T09:59:01.892Z,43.15
2022-12-20T10:01:37.934Z,40.38
2022-12-20T10:04:24.838Z,41.65
2022-12-20T10:06:58.670Z,40.85
2022-12-20T10:09:34.213Z,38.80
2022-12-20T10:12:31.179Z,41.38
2022-12-20T10:15:16.272Z,49.75
2022-12-20T10:18:02.061Z,42.60
2022-12-20T10:20:47.125Z,42.25
2022-12-20T10:23:39.029Z,42.40
2022-12-20T10:26:10.891Z,42.35
2022-12-20T10:28:38.016Z,43.90
2022-12-20T10:31:23.244Z,40.28
2022-12-20T10:33:49.916Z,40.28
2022-12-20T10:36:28.558Z,38.17
2022-12-20T10:38:57.623Z,37.78
2022-12-20T10:41:28.317Z,36.85
2022-12-20T10:44:04.582Z,38.50
2022-12-20T10:47:01.303Z,36.97
2022-12-20T10:49:32.342Z,38.93
2022-12-20T10:52:19.174Z,41.45
2022-12-20T10:54:46.570Z,39.25
2022-12-20T10:57:23.782Z,39.40
2022-12-20T11:00:28.321Z,37.33
2022-12-20T11:03:24.908Z,37.33
2022-12-20T11:05:55.048Z,37.15
2022-12-20T11:08:37.714Z,39.47
2022-12-20T11:11:24.800Z,39.40
2022-12-20T11:13:52.312Z,39.42
2022-12-20T11:16:36.884Z,43.57
2022-12-20T11:19:20.868Z,41.00
2022-12-20T11:22:00.419Z,41.22
2022-12-20T11:24:39.659Z,40.20
2022-12-20T11:27:18.809Z,43.17
2022-12-20T11:30:06.160Z,39.57
2022-12-20T11:32:53.839Z,36.30
2022-12-20T11:35:48.121Z,37.33
2022-12-20T11:38:17.823Z,41.78
2022-12-20T11:41:10.900Z,40.33
2022-12-20T11:44:15.765Z,43.80
2022-12-20T11:46:46.518Z,40.85
2022-12-20T11:49:31.922Z,38.42
2022-12-20T11:52:24.514Z,45.20
2022-12-20T11:55:07.452Z,42.97
2022-12-20T11:58:18.432Z,40.27
2022-12-20T12:00:56.249Z,36.90
2022-12-20T12:03:32.971Z,38.47
2022-12-20T12:06:12.104Z,39.45
2022-12-20T12:08:38.520Z,37.97
2022-12-20T12:12:05.225Z,39.80
2022-12-20T12:14:28.136Z,38.03
2022-12-20T12:17:00.020Z,39.53
2022-12-20T12:19:30.874Z,43.42
2022-12-20T12:22:10.899Z,39.03
2022-12-20T12:24:43.632Z,39.37
2022-12-20T12:27:21.771Z,38.80
2022-12-20T12:29:48.365Z,38.72
2022-12-20T12:32:26.040Z,42.55
2022-12-20T12:34:52.483Z,39.90
2022-12-20T12:37:37.591Z,40.13
2022-12-20T12:40:16.253Z,37.83
2022-12-20T12:43:11.358Z,36.75
2022-12-20T12:45:44.855Z,38.83
2022-12-20T12:48:47.461Z,40.75
2022-12-20T12:51:15.962Z,38.83
2022-12-20T12:53:52.949Z,40.65
2022-12-20T12:56:45.955Z,37.50
2022-12-20T12:59:13.035Z,41.15
2022-12-20T13:01:56.879Z,42.63
2022-12-20T13:04:27.785Z,39.57
2022-12-20T13:07:01.196Z,40.30
2022-12-20T13:09:27.939Z,37.33
2022-12-20T13:12:02.072Z,41.33
2022-12-20T13:14:30.920Z,41.72
2022-12-20T13:17:22.141Z,53.27
2022-12-20T13:19:53.049Z,41.88
2022-12-20T13:22:22.419Z,37.83
2022-12-20T13:25:02.857Z,40.20
2022-12-20T13:27:40.611Z,37.25
2022-12-20T13:30:07.271Z,39.20
2022-12-20T13:32:49.222Z,38.55
2022-12-20T13:35:24.844Z,40.38
2022-12-20T13:37:55.230Z,41.83
2022-12-20T13:40:39.269Z,41.28
2022-12-20T13:43:17.793Z,38.17
2022-12-20T13:45:55.490Z,39.08
2022-12-20T13:48:36.115Z,39.17
2022-12-20T13:51:03.233Z,39.08
2022-12-20T13:53:31.344Z,42.25
2022-12-20T13:55:58.018Z,45.23
2022-12-20T13:58:26.881Z,46.03
2022-12-20T14:01:00.840Z,38.60
2022-12-20T14:03:29.243Z,42.63
2022-12-20T14:05:59.651Z,47.75
2022-12-20T14:08:30.469Z,49.97
2022-12-20T14:11:09.818Z,44.28
2022-12-20T14:13:36.414Z,44.20
2022-12-20T14:16:17.749Z,45.10
2022-12-20T14:19:00.164Z,48.63
2022-12-20T14:21:27.886Z,45.93
2022-12-20T14:23:56.855Z,45.50
2022-12-20T14:26:45.098Z,42.00
2022-12-20T14:29:16.575Z,41.60
2022-12-20T14:31:47.862Z,42.55
2022-12-20T14:34:24.527Z,41.87
2022-12-20T14:37:18.592Z,43.78
2022-12-20T14:40:01.950Z,42.53
2022-12-20T14:42:34.439Z,41.70
2022-12-20T14:45:10.567Z,42.40
2022-12-20T14:47:39.007Z,42.27
2022-12-20T14:50:21.067Z,42.60
2022-12-20T14:52:47.627Z,39.58
2022-12-20T14:55:25.113Z,42.95
2022-12-20T14:57:54.486Z,43.10
2022-12-20T15:00:29.986Z,45.90
2022-12-20T15:02:57.065Z,43.90
2022-12-20T15:05:36.598Z,46.50
2022-12-20T15:08:19.995Z,44.78
2022-12-20T15:10:58.539Z,70.15
2022-12-20T15:13:27.260Z,61.67
2022-12-20T15:15:54.001Z,52.05
2022-12-20T15:18:21.798Z,53.63
2022-12-20T15:21:00.554Z,53.15
2022-12-20T15:23:27.051Z,55.55
2022-12-20T15:25:53.644Z,90.43
2022-12-20T15:28:22.789Z,78.43
2022-12-20T15:30:51.569Z,58.25
2022-12-20T15:33:26.016Z,48.72
2022-12-20T15:35:53.753Z,45.97
2022-12-20T15:38:47.463Z,46.30
2022-12-20T15:41:20.151Z,45.60
2022-12-20T15:43:47.785Z,54.10
2022-12-20T15:46:14.491Z,50.47
2022-12-20T15:48:41.151Z,48.35
2022-12-20T15:51:16.486Z,49.03
2022-12-20T15:53:43.173Z,47.70
2022-12-20T15:56:19.068Z,53.10
2022-12-20T15:58:47.702Z,46.45
2022-12-20T16:01:24.153Z,45.90
2022-12-20T16:03:50.843Z,48.10
2022-12-20T16:06:17.353Z,51.28
2022-12-20T16:08:44.067Z,50.95
2022-12-20T16:11:21.803Z,50.58
2022-12-20T16:13:48.427Z,45.40
2022-12-20T16:16:18.766Z,46.47
2022-12-20T16:18:45.700Z,54.17
2022-12-20T16:21:20.568Z,47.90
2022-12-20T16:23:47.452Z,46.63
2022-12-20T16:26:15.185Z,48.38
2022-12-20T16:28:42.838Z,49.40
2022-12-20T16:31:16.956Z,46.50
2022-12-20T16:33:43.535Z,47.22
2022-12-20T16:36:12.087Z,45.53
2022-12-20T16:38:38.476Z,46.85
2022-12-20T16:41:32.217Z,47.50
2022-12-20T16:44:01.015Z,52.40
2022-12-20T16:46:30.231Z,48.75
2022-12-20T16:48:58.340Z,49.55
2022-12-20T16:51:31.709Z,55.22
2022-12-20T16:54:20.632Z,55.20
2022-12-20T16:56:51.247Z,50.28
2022-12-20T16:59:20.774Z,49.40
2022-12-20T17:01:51.777Z,48.72
2022-12-20T17:04:19.892Z,53.75
2022-12-20T17:06:47.030Z,49.87
2022-12-20T17:11:59.206Z,48.80
2022-12-20T17:14:25.748Z,56.67
2022-12-20T17:16:52.137Z,57.00
2022-12-20T17:19:19.509Z,57.67
2022-12-20T17:24:32.884Z,62.90
2022-12-20T17:27:00.457Z,64.78
2022-12-20T17:29:27.043Z,52.70
2022-12-20T17:31:53.743Z,50.70
2022-12-20T17:34:23.281Z,51.42
2022-12-20T17:36:52.438Z,50.38
2022-12-20T17:39:19.037Z,50.72
2022-12-20T17:41:45.732Z,49.90
2022-12-20T17:44:27.474Z,53.47
2022-12-20T17:46:55.892Z,56.63
2022-12-20T17:49:23.875Z,50.63
2022-12-20T17:51:56.420Z,58.85
2022-12-20T17:54:25.282Z,54.92
2022-12-20T17:56:53.788Z,58.73
2022-12-20T17:59:21.901Z,66.30
2022-12-20T18:01:48.884Z,62.10
2022-12-20T18:04:16.729Z,60.92
2022-12-20T18:06:45.261Z,55.50
2022-12-20T18:09:17.175Z,54.20
2022-12-20T18:11:44.638Z,57.03
2022-12-20T18:14:11.858Z,51.58
2022-12-20T18:16:41.808Z,49.95
2022-12-20T18:19:14.485Z,55.72
2022-12-20T18:21:41.908Z,51.43
2022-12-20T18:24:11.902Z,49.15
2022-12-20T18:26:38.456Z,52.95
2022-12-20T18:29:04.860Z,54.00
2022-12-20T18:31:34.443Z,49.20
2022-12-20T18:34:01.852Z,49.97
2022-12-20T18:36:31.015Z,48.70
2022-12-20T18:38:59.807Z,50.80
2022-12-20T18:41:28.635Z,51.08
2022-12-20T18:44:02.570Z,49.33
2022-12-20T18:46:29.848Z,50.93
2022-12-20T18:48:58.520Z,50.88
2022-12-20T18:51:28.645Z,55.60
2022-12-20T18:53:57.500Z,64.97
2022-12-20T18:56:26.518Z,64.35
2022-12-20T18:58:53.110Z,54.97
2022-12-20T19:01:25.224Z,61.60
2022-12-20T19:03:53.159Z,84.70
2022-12-20T19:06:20.571Z,64.97
2022-12-20T19:08:47.700Z,62.38
2022-12-20T19:11:17.481Z,53.93
2022-12-20T19:13:44.773Z,55.10
2022-12-20T19:16:19.109Z,52.15
2022-12-20T19:18:46.308Z,56.75
2022-12-20T19:21:16.359Z,54.03
2022-12-20T19:23:45.672Z,53.90
2022-12-20T19:26:14.348Z,58.05
2022-12-20T19:28:41.758Z,51.42
2022-12-20T19:31:15.684Z,52.70
2022-12-20T19:33:47.671Z,50.58
2022-12-20T19:36:17.348Z,52.20
2022-12-20T19:38:45.893Z,52.17
2022-12-20T19:41:12.617Z,52.63
2022-12-20T19:43:39.785Z,56.13
2022-12-20T19:46:07.654Z,55.55
2022-12-20T19:48:34.850Z,51.60
2022-12-20T19:51:05.457Z,53.30
2022-12-20T19:53:32.388Z,51.95
2022-12-20T19:55:59.533Z,53.33
2022-12-20T19:58:26.108Z,51.53
2022-12-20T20:00:52.948Z,49.50
2022-12-20T20:03:21.773Z,52.70
2022-12-20T20:05:49.207Z,50.00
2022-12-20T20:08:16.788Z,51.92
2022-12-20T20:10:44.835Z,49.63
2022-12-20T20:13:11.529Z,52.40
2022-12-20T20:15:38.043Z,50.92
2022-12-20T20:18:04.734Z,49.30
2022-12-20T20:20:31.369Z,51.20
2022-12-20T20:22:57.737Z,52.85
2022-12-20T20:25:24.254Z,55.70
2022-12-20T20:27:50.899Z,50.72
2022-12-20T20:30:18.080Z,52.80
2022-12-20T20:32:44.611Z,53.50
2022-12-20T20:35:11.248Z,47.83
2022-12-20T20:37:37.942Z,53.87
2022-12-20T20:40:05.269Z,48.13
2022-12-20T20:42:31.885Z,51.15
2022-12-20T20:44:58.489Z,52.00
2022-12-20T20:47:25.002Z,50.33
2022-12-20T20:49:52.977Z,52.40
2022-12-20T20:52:19.863Z,51.40
2022-12-20T20:54:46.795Z,53.28
2022-12-20T20:57:13.324Z,52.80
2022-12-20T20:59:40.059Z,49.20
2022-12-20T21:02:07.432Z,53.47
2022-12-20T21:04:34.097Z,50.75
2022-12-20T21:07:00.674Z,56.65
2022-12-20T21:09:27.176Z,54.13
2022-12-20T21:11:53.843Z,99.47
2022-12-20T21:14:43.347Z,104.57
2022-12-20T21:17:07.057Z,117.68
2022-12-20T21:19:34.050Z,156.80
2022-12-20T21:22:00.605Z,88.68
2022-12-20T21:24:27.479Z,103.50
2022-12-20T21:26:55.452Z,94.50
2022-12-20T21:29:22.103Z,90.80
2022-12-20T21:31:48.827Z,65.38
2022-12-20T21:34:15.376Z,57.78
2022-12-20T21:36:41.979Z,48.13
2022-12-20T21:39:12.729Z,58.60
2022-12-20T21:41:40.368Z,61.97
2022-12-20T21:44:06.969Z,67.38
2022-12-20T21:46:33.826Z,58.90
2022-12-20T21:49:00.772Z,48.97
2022-12-20T21:51:29.023Z,52.53
2022-12-20T21:53:57.895Z,52.22
2022-12-20T21:56:26.928Z,52.67
2022-12-20T21:58:53.930Z,48.90
2022-12-20T22:01:23.393Z,53.67
2022-12-20T22:03:51.889Z,48.43
2022-12-20T22:06:19.303Z,48.78
2022-12-20T22:08:46.099Z,57.30
2022-12-20T22:11:15.961Z,58.85
2022-12-20T22:13:42.990Z,54.47
2022-12-20T22:16:15.362Z,58.03
2022-12-20T22:18:43.213Z,62.88
2022-12-20T22:21:12.628Z,63.92
2022-12-20T22:23:40.062Z,58.35
2022-12-20T22:26:09.827Z,51.63
2022-12-20T22:28:37.375Z,50.70
2022-12-20T22:31:08.892Z,51.13
2022-12-20T22:33:36.975Z,51.70
2022-12-20T22:36:04.659Z,55.10
2022-12-20T22:38:31.275Z,50.67
2022-12-20T22:41:12.151Z,50.47
2022-12-20T22:43:39.186Z,50.38
2022-12-20T22:46:06.622Z,50.70
2022-12-20T22:48:33.557Z,50.50
2022-12-20T22:51:02.168Z,49.00
2022-12-20T22:53:28.739Z,51.60
2022-12-20T22:55:55.468Z,48.13
2022-12-20T22:58:22.103Z,50.85
2022-12-20T23:00:48.736Z,50.00
2022-12-20T23:03:15.721Z,44.63
2022-12-20T23:05:54.716Z,51.00
2022-12-20T23:08:22.000Z,50.22
2022-12-20T23:11:07.344Z,50.22
2022-12-20T23:13:52.278Z,53.28
2022-12-20T23:16:19.496Z,53.05
2022-12-20T23:18:46.281Z,49.60
2022-12-20T23:21:31.275Z,52.75
2022-12-20T23:23:57.813Z,54.53
2022-12-20T23:26:24.371Z,52.85
2022-12-20T23:28:51.295Z,52.92
2022-12-20T23:31:17.892Z,47.77
2022-12-20T23:33:44.286Z,49.35
2022-12-20T23:36:11.678Z,50.22
2022-12-20T23:38:38.692Z,47.67
2022-12-20T23:41:10.083Z,50.58
2022-12-20T23:43:37.583Z,51.60
2022-12-20T23:46:05.695Z,50.05
2022-12-20T23:48:32.888Z,51.08
2022-12-20T23:50:59.968Z,44.92
2022-12-20T23:53:27.296Z,49.22
2022-12-20T23:56:03.213Z,49.27
2022-12-20T23:58:29.752Z,54.90
